sensor_id;sensor_type;location;lat;lon;timestamp;P1;durP1;ratioP1;P2;durP2;ratioP2
55647;SDS011;45266;48.756;9.246;2022-12-18T00:00:03;51.00;;;24.40;;
55647;SDS011;45266;48.756;9.246;2022-12-18T00:01:14;44.63;;;22.60;;
55647;SDS011;45266;48.756;9.246;2022-12-18T00:02:18;49.87;;;24.53;;
55647;SDS011;45266;48.756;9.246;2022-12-18T00:03:19;44.93;;;22.93;;
55647;SDS011;45266;48.756;9.246;2022-12-18T00:04:22;51.07;;;24.67;;
55647;SDS011;45266;48.756;9.246;2022-12-18T00:05:25;52.43;;;25.13;;
55647;SDS011;45266;48.756;9.246;2022-12-18T00:06:27;51.17;;;25.50;;
55647;SDS011;45266;48.756;9.246;2022-12-18T00:07:30;48.70;;;24.53;;
55647;SDS011;45266;48.756;9.246;2022-12-18T00:08:32;42.27;;;23.40;;
55647;SDS011;45266;48.756;9.246;2022-12-18T00:09:34;51.87;;;24.23;;
55647;SDS011;45266;48.756;9.246;2022-12-18T00:10:40;48.23;;;24.30;;
55647;SDS011;45266;48.756;9.246;2022-12-18T00:11:42;49.93;;;23.60;;
55647;SDS011;45266;48.756;9.246;2022-12-18T00:12:44;45.40;;;22.33;;
55647;SDS011;45266;48.756;9.246;2022-12-18T00:13:46;42.97;;;22.47;;
55647;SDS011;45266;48.756;9.246;2022-12-18T00:14:48;45.00;;;23.90;;
55647;SDS011;45266;48.756;9.246;2022-12-18T00:15:50;46.40;;;23.93;;
55647;SDS011;45266;48.756;9.246;2022-12-18T00:16:56;50.20;;;24.37;;
55647;SDS011;45266;48.756;9.246;2022-12-18T00:18:01;48.77;;;23.67;;
55647;SDS011;45266;48.756;9.246;2022-12-18T00:19:05;54.30;;;25.13;;
55647;SDS011;45266;48.756;9.246;2022-12-18T00:20:08;43.87;;;24.07;;
55647;SDS011;45266;48.756;9.246;2022-12-18T00:21:10;44.27;;;21.80;;
55647;SDS011;45266;48.756;9.246;2022-12-18T00:22:13;47.50;;;23.67;;
55647;SDS011;45266;48.756;9.246;2022-12-18T00:23:15;46.70;;;23.07;;
55647;SDS011;45266;48.756;9.246;2022-12-18T00:24:17;43.63;;;22.07;;
55647;SDS011;45266;48.756;9.246;2022-12-18T00:25:20;47.17;;;23.50;;
55647;SDS011;45266;48.756;9.246;2022-12-18T00:26:23;42.63;;;23.40;;
55647;SDS011;45266;48.756;9.246;2022-12-18T00:27:26;46.93;;;22.27;;
55647;SDS011;45266;48.756;9.246;2022-12-18T00:28:28;49.20;;;23.83;;
55647;SDS011;45266;48.756;9.246;2022-12-18T00:29:30;49.07;;;23.83;;
55647;SDS011;45266;48.756;9.246;2022-12-18T00:30:32;45.67;;;23.57;;
55647;SDS011;45266;48.756;9.246;2022-12-18T00:31:33;49.00;;;23.37;;
55647;SDS011;45266;48.756;9.246;2022-12-18T00:32:36;48.60;;;23.80;;
55647;SDS011;45266;48.756;9.246;2022-12-18T00:33:38;43.47;;;22.20;;
55647;SDS011;45266;48.756;9.246;2022-12-18T00:34:40;47.17;;;23.57;;
55647;SDS011;45266;48.756;9.246;2022-12-18T00:35:42;46.03;;;22.67;;
55647;SDS011;45266;48.756;9.246;2022-12-18T00:36:44;43.27;;;22.53;;
55647;SDS011;45266;48.756;9.246;2022-12-18T00:37:49;45.33;;;23.33;;
55647;SDS011;45266;48.756;9.246;2022-12-18T00:38:51;50.37;;;22.67;;
55647;SDS011;45266;48.756;9.246;2022-12-18T00:39:54;44.87;;;22.33;;
55647;SDS011;45266;48.756;9.246;2022-12-18T00:40:56;42.20;;;23.43;;
55647;SDS011;45266;48.756;9.246;2022-12-18T00:41:58;44.53;;;22.40;;
55647;SDS011;45266;48.756;9.246;2022-12-18T00:43:18;43.07;;;21.87;;
55647;SDS011;45266;48.756;9.246;2022-12-18T00:44:20;43.83;;;22.03;;
55647;SDS011;45266;48.756;9.246;2022-12-18T00:45:22;44.70;;;22.73;;
55647;SDS011;45266;48.756;9.246;2022-12-18T00:46:26;45.67;;;22.10;;
55647;SDS011;45266;48.756;9.246;2022-12-18T00:47:28;42.33;;;22.13;;
55647;SDS011;45266;48.756;9.246;2022-12-18T00:48:30;46.97;;;23.43;;
55647;SDS011;45266;48.756;9.246;2022-12-18T00:49:31;44.13;;;22.60;;
55647;SDS011;45266;48.756;9.246;2022-12-18T00:50:35;45.90;;;22.40;;
55647;SDS011;45266;48.756;9.246;2022-12-18T00:51:38;46.67;;;22.03;;
55647;SDS011;45266;48.756;9.246;2022-12-18T00:52:41;42.50;;;22.50;;
55647;SDS011;45266;48.756;9.246;2022-12-18T00:53:44;49.40;;;22.47;;
55647;SDS011;45266;48.756;9.246;2022-12-18T00:54:48;45.77;;;23.23;;
55647;SDS011;45266;48.756;9.246;2022-12-18T00:55:50;45.87;;;22.17;;
55647;SDS011;45266;48.756;9.246;2022-12-18T00:56:52;43.27;;;22.00;;
55647;SDS011;45266;48.756;9.246;2022-12-18T00:57:54;47.27;;;21.93;;
55647;SDS011;45266;48.756;9.246;2022-12-18T00:58:55;45.47;;;22.00;;
55647;SDS011;45266;48.756;9.246;2022-12-18T00:59:57;45.50;;;21.30;;
55647;SDS011;45266;48.756;9.246;2022-12-18T01:00:59;43.00;;;21.03;;
55647;SDS011;45266;48.756;9.246;2022-12-18T01:02:01;45.97;;;23.57;;
55647;SDS011;45266;48.756;9.246;2022-12-18T01:03:03;43.07;;;21.67;;
55647;SDS011;45266;48.756;9.246;2022-12-18T01:04:05;47.60;;;22.67;;
55647;SDS011;45266;48.756;9.246;2022-12-18T01:05:07;45.57;;;21.67;;
55647;SDS011;45266;48.756;9.246;2022-12-18T01:06:11;42.33;;;22.43;;
55647;SDS011;45266;48.756;9.246;2022-12-18T01:07:14;44.87;;;23.37;;
55647;SDS011;45266;48.756;9.246;2022-12-18T01:08:16;41.93;;;21.73;;
55647;SDS011;45266;48.756;9.246;2022-12-18T01:09:17;47.23;;;23.20;;
55647;SDS011;45266;48.756;9.246;2022-12-18T01:10:19;44.10;;;23.13;;
55647;SDS011;45266;48.756;9.246;2022-12-18T01:11:21;44.10;;;23.20;;
55647;SDS011;45266;48.756;9.246;2022-12-18T01:12:23;42.63;;;21.93;;
55647;SDS011;45266;48.756;9.246;2022-12-18T01:13:25;43.73;;;22.37;;
55647;SDS011;45266;48.756;9.246;2022-12-18T01:14:26;42.47;;;22.07;;
55647;SDS011;45266;48.756;9.246;2022-12-18T01:15:28;44.97;;;22.93;;
55647;SDS011;45266;48.756;9.246;2022-12-18T01:16:30;46.67;;;21.90;;
55647;SDS011;45266;48.756;9.246;2022-12-18T01:17:32;45.77;;;24.50;;
55647;SDS011;45266;48.756;9.246;2022-12-18T01:18:35;42.73;;;21.90;;
55647;SDS011;45266;48.756;9.246;2022-12-18T01:19:36;49.73;;;24.00;;
55647;SDS011;45266;48.756;9.246;2022-12-18T01:20:38;45.33;;;23.63;;
55647;SDS011;45266;48.756;9.246;2022-12-18T01:21:40;51.00;;;25.10;;
55647;SDS011;45266;48.756;9.246;2022-12-18T01:22:42;43.13;;;23.13;;
55647;SDS011;45266;48.756;9.246;2022-12-18T01:23:43;48.13;;;24.07;;
55647;SDS011;45266;48.756;9.246;2022-12-18T01:24:45;43.67;;;22.87;;
55647;SDS011;45266;48.756;9.246;2022-12-18T01:25:47;44.07;;;22.47;;
55647;SDS011;45266;48.756;9.246;2022-12-18T01:26:49;43.57;;;23.07;;
55647;SDS011;45266;48.756;9.246;2022-12-18T01:27:51;48.57;;;23.50;;
55647;SDS011;45266;48.756;9.246;2022-12-18T01:28:54;53.20;;;23.77;;
55647;SDS011;45266;48.756;9.246;2022-12-18T01:29:57;48.17;;;22.73;;
55647;SDS011;45266;48.756;9.246;2022-12-18T01:31:09;52.53;;;25.23;;
55647;SDS011;45266;48.756;9.246;2022-12-18T01:32:15;48.00;;;22.57;;
55647;SDS011;45266;48.756;9.246;2022-12-18T01:33:16;47.53;;;23.00;;
55647;SDS011;45266;48.756;9.246;2022-12-18T01:34:18;49.50;;;23.33;;
55647;SDS011;45266;48.756;9.246;2022-12-18T01:35:20;43.73;;;23.67;;
55647;SDS011;45266;48.756;9.246;2022-12-18T01:36:22;47.80;;;23.17;;
55647;SDS011;45266;48.756;9.246;2022-12-18T01:37:26;47.17;;;22.97;;
55647;SDS011;45266;48.756;9.246;2022-12-18T01:38:28;42.97;;;22.53;;
55647;SDS011;45266;48.756;9.246;2022-12-18T01:39:30;50.00;;;22.30;;
55647;SDS011;45266;48.756;9.246;2022-12-18T01:40:35;40.43;;;22.27;;
55647;SDS011;45266;48.756;9.246;2022-12-18T01:41:37;48.27;;;22.87;;
55647;SDS011;45266;48.756;9.246;2022-12-18T01:42:58;43.53;;;21.57;;
55647;SDS011;45266;48.756;9.246;2022-12-18T01:44:00;42.73;;;22.87;;
55647;SDS011;45266;48.756;9.246;2022-12-18T01:45:06;45.77;;;21.90;;
55647;SDS011;45266;48.756;9.246;2022-12-18T01:46:18;41.07;;;21.90;;
55647;SDS011;45266;48.756;9.246;2022-12-18T01:47:35;45.03;;;21.63;;
55647;SDS011;45266;48.756;9.246;2022-12-18T01:48:40;45.90;;;21.40;;
55647;SDS011;45266;48.756;9.246;2022-12-18T01:49:42;46.27;;;23.47;;
55647;SDS011;45266;48.756;9.246;2022-12-18T01:50:44;49.93;;;23.10;;
55647;SDS011;45266;48.756;9.246;2022-12-18T01:51:46;45.43;;;22.40;;
55647;SDS011;45266;48.756;9.246;2022-12-18T01:52:55;49.43;;;23.50;;
55647;SDS011;45266;48.756;9.246;2022-12-18T01:54:04;44.60;;;21.67;;
55647;SDS011;45266;48.756;9.246;2022-12-18T01:55:06;45.50;;;21.33;;
55647;SDS011;45266;48.756;9.246;2022-12-18T01:56:12;49.10;;;23.27;;
55647;SDS011;45266;48.756;9.246;2022-12-18T01:57:15;45.67;;;23.43;;
55647;SDS011;45266;48.756;9.246;2022-12-18T01:58:18;47.70;;;24.03;;
55647;SDS011;45266;48.756;9.246;2022-12-18T01:59:23;46.23;;;22.90;;
55647;SDS011;45266;48.756;9.246;2022-12-18T02:00:25;49.17;;;23.37;;
55647;SDS011;45266;48.756;9.246;2022-12-18T02:01:28;49.07;;;23.10;;
55647;SDS011;45266;48.756;9.246;2022-12-18T02:02:31;43.80;;;21.47;;
55647;SDS011;45266;48.756;9.246;2022-12-18T02:03:33;50.17;;;23.30;;
55647;SDS011;45266;48.756;9.246;2022-12-18T02:04:36;41.97;;;20.93;;
55647;SDS011;45266;48.756;9.246;2022-12-18T02:07:03;45.67;;;21.87;;
55647;SDS011;45266;48.756;9.246;2022-12-18T02:09:24;46.60;;;22.07;;
55647;SDS011;45266;48.756;9.246;2022-12-18T02:12:24;40.53;;;20.23;;
55647;SDS011;45266;48.756;9.246;2022-12-18T02:13:38;42.70;;;21.70;;
55647;SDS011;45266;48.756;9.246;2022-12-18T02:17:15;44.53;;;21.23;;
55647;SDS011;45266;48.756;9.246;2022-12-18T02:19:22;45.70;;;22.27;;
55647;SDS011;45266;48.756;9.246;2022-12-18T02:20:35;50.33;;;22.83;;
55647;SDS011;45266;48.756;9.246;2022-12-18T02:21:59;43.80;;;21.70;;
55647;SDS011;45266;48.756;9.246;2022-12-18T02:23:17;43.03;;;20.87;;
55647;SDS011;45266;48.756;9.246;2022-12-18T02:24:29;45.80;;;21.37;;
55647;SDS011;45266;48.756;9.246;2022-12-18T02:27:07;44.00;;;21.60;;
55647;SDS011;45266;48.756;9.246;2022-12-18T02:28:12;41.37;;;20.63;;
55647;SDS011;45266;48.756;9.246;2022-12-18T02:29:20;42.77;;;22.03;;
55647;SDS011;45266;48.756;9.246;2022-12-18T02:30:31;46.80;;;22.27;;
55647;SDS011;45266;48.756;9.246;2022-12-18T02:33:08;44.40;;;21.43;;
55647;SDS011;45266;48.756;9.246;2022-12-18T02:34:13;43.37;;;21.20;;
55647;SDS011;45266;48.756;9.246;2022-12-18T02:35:22;43.97;;;22.17;;
55647;SDS011;45266;48.756;9.246;2022-12-18T02:36:25;44.30;;;20.77;;
55647;SDS011;45266;48.756;9.246;2022-12-18T02:37:29;44.33;;;20.97;;
55647;SDS011;45266;48.756;9.246;2022-12-18T02:38:34;37.00;;;20.57;;
55647;SDS011;45266;48.756;9.246;2022-12-18T02:39:39;45.60;;;22.33;;
55647;SDS011;45266;48.756;9.246;2022-12-18T02:40:43;48.07;;;22.57;;
55647;SDS011;45266;48.756;9.246;2022-12-18T02:41:46;46.30;;;22.27;;
55647;SDS011;45266;48.756;9.246;2022-12-18T02:42:48;45.13;;;21.50;;
55647;SDS011;45266;48.756;9.246;2022-12-18T02:43:53;45.43;;;22.33;;
55647;SDS011;45266;48.756;9.246;2022-12-18T02:44:59;47.67;;;23.03;;
55647;SDS011;45266;48.756;9.246;2022-12-18T02:46:20;47.50;;;23.60;;
55647;SDS011;45266;48.756;9.246;2022-12-18T02:47:32;52.93;;;23.03;;
55647;SDS011;45266;48.756;9.246;2022-12-18T02:48:37;49.93;;;24.60;;
55647;SDS011;45266;48.756;9.246;2022-12-18T02:50:45;45.87;;;21.63;;
55647;SDS011;45266;48.756;9.246;2022-12-18T02:52:07;43.33;;;20.67;;
55647;SDS011;45266;48.756;9.246;2022-12-18T02:53:27;45.50;;;20.97;;
55647;SDS011;45266;48.756;9.246;2022-12-18T02:55:36;43.73;;;21.27;;
55647;SDS011;45266;48.756;9.246;2022-12-18T02:56:29;42.83;;;19.47;;
55647;SDS011;45266;48.756;9.246;2022-12-18T02:57:47;39.33;;;20.67;;
55647;SDS011;45266;48.756;9.246;2022-12-18T02:59:16;42.80;;;19.80;;
55647;SDS011;45266;48.756;9.246;2022-12-18T03:00:29;45.23;;;21.00;;
55647;SDS011;45266;48.756;9.246;2022-12-18T03:02:01;43.67;;;21.63;;
55647;SDS011;45266;48.756;9.246;2022-12-18T03:03:28;40.67;;;19.23;;
55647;SDS011;45266;48.756;9.246;2022-12-18T03:04:42;42.07;;;21.63;;
55647;SDS011;45266;48.756;9.246;2022-12-18T03:05:52;48.00;;;20.70;;
55647;SDS011;45266;48.756;9.246;2022-12-18T03:06:58;42.23;;;20.53;;
55647;SDS011;45266;48.756;9.246;2022-12-18T03:08:23;42.27;;;20.77;;
55647;SDS011;45266;48.756;9.246;2022-12-18T03:09:29;45.03;;;19.50;;
55647;SDS011;45266;48.756;9.246;2022-12-18T03:10:38;45.30;;;21.67;;
55647;SDS011;45266;48.756;9.246;2022-12-18T03:11:44;43.90;;;21.43;;
55647;SDS011;45266;48.756;9.246;2022-12-18T03:13:08;41.73;;;20.57;;
55647;SDS011;45266;48.756;9.246;2022-12-18T03:14:20;43.70;;;20.50;;
55647;SDS011;45266;48.756;9.246;2022-12-18T03:15:34;49.23;;;23.17;;
55647;SDS011;45266;48.756;9.246;2022-12-18T03:16:45;48.70;;;21.83;;
55647;SDS011;45266;48.756;9.246;2022-12-18T03:17:56;42.60;;;21.67;;
55647;SDS011;45266;48.756;9.246;2022-12-18T03:19:22;43.93;;;20.70;;
55647;SDS011;45266;48.756;9.246;2022-12-18T03:20:28;43.67;;;22.40;;
55647;SDS011;45266;48.756;9.246;2022-12-18T03:21:34;39.00;;;20.73;;
55647;SDS011;45266;48.756;9.246;2022-12-18T03:22:41;42.47;;;20.83;;
55647;SDS011;45266;48.756;9.246;2022-12-18T03:23:47;40.37;;;20.80;;
55647;SDS011;45266;48.756;9.246;2022-12-18T03:24:51;44.97;;;21.83;;
55647;SDS011;45266;48.756;9.246;2022-12-18T03:25:57;43.40;;;20.80;;
55647;SDS011;45266;48.756;9.246;2022-12-18T03:27:11;44.03;;;20.67;;
55647;SDS011;45266;48.756;9.246;2022-12-18T03:28:19;43.07;;;21.10;;
55647;SDS011;45266;48.756;9.246;2022-12-18T03:29:26;42.83;;;20.50;;
55647;SDS011;45266;48.756;9.246;2022-12-18T03:30:33;45.40;;;22.17;;
55647;SDS011;45266;48.756;9.246;2022-12-18T03:31:37;45.47;;;21.80;;
55647;SDS011;45266;48.756;9.246;2022-12-18T03:32:48;42.43;;;21.47;;
55647;SDS011;45266;48.756;9.246;2022-12-18T03:34:04;43.47;;;21.37;;
55647;SDS011;45266;48.756;9.246;2022-12-18T03:35:11;42.80;;;21.03;;
55647;SDS011;45266;48.756;9.246;2022-12-18T03:36:18;42.87;;;21.17;;
55647;SDS011;45266;48.756;9.246;2022-12-18T03:37:20;46.10;;;20.90;;
55647;SDS011;45266;48.756;9.246;2022-12-18T03:38:22;45.13;;;21.63;;
55647;SDS011;45266;48.756;9.246;2022-12-18T03:39:24;48.17;;;22.07;;
55647;SDS011;45266;48.756;9.246;2022-12-18T03:40:27;41.07;;;21.03;;
55647;SDS011;45266;48.756;9.246;2022-12-18T03:43:27;46.33;;;21.27;;
55647;SDS011;45266;48.756;9.246;2022-12-18T03:44:40;43.20;;;20.33;;
55647;SDS011;45266;48.756;9.246;2022-12-18T03:45:49;42.57;;;19.47;;
55647;SDS011;45266;48.756;9.246;2022-12-18T03:47:10;41.93;;;20.57;;
55647;SDS011;45266;48.756;9.246;2022-12-18T03:48:32;38.17;;;18.63;;
55647;SDS011;45266;48.756;9.246;2022-12-18T03:49:48;36.63;;;19.67;;
55647;SDS011;45266;48.756;9.246;2022-12-18T03:52:06;41.50;;;20.40;;
55647;SDS011;45266;48.756;9.246;2022-12-18T03:53:25;38.97;;;20.03;;
55647;SDS011;45266;48.756;9.246;2022-12-18T03:54:34;39.03;;;20.10;;
55647;SDS011;45266;48.756;9.246;2022-12-18T03:55:37;39.47;;;20.20;;
55647;SDS011;45266;48.756;9.246;2022-12-18T03:56:42;40.27;;;20.10;;
55647;SDS011;45266;48.756;9.246;2022-12-18T03:57:48;40.37;;;20.60;;
55647;SDS011;45266;48.756;9.246;2022-12-18T03:58:51;42.73;;;21.43;;
55647;SDS011;45266;48.756;9.246;2022-12-18T03:59:56;39.20;;;20.43;;
55647;SDS011;45266;48.756;9.246;2022-12-18T04:01:02;39.17;;;19.90;;
55647;SDS011;45266;48.756;9.246;2022-12-18T04:02:10;46.10;;;21.53;;
55647;SDS011;45266;48.756;9.246;2022-12-18T04:03:12;42.77;;;20.90;;
55647;SDS011;45266;48.756;9.246;2022-12-18T04:04:16;44.13;;;21.27;;
55647;SDS011;45266;48.756;9.246;2022-12-18T04:05:20;48.20;;;20.53;;
55647;SDS011;45266;48.756;9.246;2022-12-18T04:06:23;44.47;;;22.00;;
55647;SDS011;45266;48.756;9.246;2022-12-18T04:07:25;39.57;;;20.20;;
55647;SDS011;45266;48.756;9.246;2022-12-18T04:08:28;46.00;;;21.83;;
55647;SDS011;45266;48.756;9.246;2022-12-18T04:09:31;50.90;;;22.27;;
55647;SDS011;45266;48.756;9.246;2022-12-18T04:10:34;39.77;;;20.77;;
55647;SDS011;45266;48.756;9.246;2022-12-18T04:11:37;41.77;;;21.50;;
55647;SDS011;45266;48.756;9.246;2022-12-18T04:12:39;46.43;;;22.03;;
55647;SDS011;45266;48.756;9.246;2022-12-18T04:13:41;41.40;;;20.67;;
55647;SDS011;45266;48.756;9.246;2022-12-18T04:14:45;43.40;;;20.30;;
55647;SDS011;45266;48.756;9.246;2022-12-18T04:15:47;44.83;;;21.40;;
55647;SDS011;45266;48.756;9.246;2022-12-18T04:16:49;43.37;;;20.23;;
55647;SDS011;45266;48.756;9.246;2022-12-18T04:17:51;41.07;;;20.40;;
55647;SDS011;45266;48.756;9.246;2022-12-18T04:18:53;43.13;;;20.07;;
55647;SDS011;45266;48.756;9.246;2022-12-18T04:19:55;39.37;;;19.60;;
55647;SDS011;45266;48.756;9.246;2022-12-18T04:20:57;45.70;;;20.27;;
55647;SDS011;45266;48.756;9.246;2022-12-18T04:21:58;45.37;;;21.33;;
55647;SDS011;45266;48.756;9.246;2022-12-18T04:23:00;47.47;;;21.23;;
55647;SDS011;45266;48.756;9.246;2022-12-18T04:24:02;43.90;;;21.50;;
55647;SDS011;45266;48.756;9.246;2022-12-18T04:25:04;42.10;;;20.63;;
55647;SDS011;45266;48.756;9.246;2022-12-18T04:26:06;40.57;;;21.13;;
55647;SDS011;45266;48.756;9.246;2022-12-18T04:27:08;41.10;;;20.67;;
55647;SDS011;45266;48.756;9.246;2022-12-18T04:28:10;41.00;;;20.40;;
55647;SDS011;45266;48.756;9.246;2022-12-18T04:29:12;41.33;;;20.40;;
55647;SDS011;45266;48.756;9.246;2022-12-18T04:30:13;46.37;;;21.00;;
55647;SDS011;45266;48.756;9.246;2022-12-18T04:31:15;41.37;;;21.27;;
55647;SDS011;45266;48.756;9.246;2022-12-18T04:32:17;44.17;;;20.83;;
55647;SDS011;45266;48.756;9.246;2022-12-18T04:33:19;41.17;;;20.30;;
55647;SDS011;45266;48.756;9.246;2022-12-18T04:34:21;44.50;;;21.57;;
55647;SDS011;45266;48.756;9.246;2022-12-18T04:35:23;42.83;;;21.10;;
55647;SDS011;45266;48.756;9.246;2022-12-18T04:36:24;42.03;;;21.70;;
55647;SDS011;45266;48.756;9.246;2022-12-18T04:37:26;45.17;;;21.77;;
55647;SDS011;45266;48.756;9.246;2022-12-18T04:38:28;39.50;;;20.03;;
55647;SDS011;45266;48.756;9.246;2022-12-18T04:39:30;46.47;;;21.47;;
55647;SDS011;45266;48.756;9.246;2022-12-18T04:40:31;44.87;;;21.70;;
55647;SDS011;45266;48.756;9.246;2022-12-18T04:41:33;41.33;;;19.77;;
55647;SDS011;45266;48.756;9.246;2022-12-18T04:42:35;42.30;;;20.57;;
55647;SDS011;45266;48.756;9.246;2022-12-18T04:43:37;45.37;;;21.60;;
55647;SDS011;45266;48.756;9.246;2022-12-18T04:44:39;44.83;;;21.17;;
55647;SDS011;45266;48.756;9.246;2022-12-18T04:45:41;42.63;;;20.43;;
55647;SDS011;45266;48.756;9.246;2022-12-18T04:46:43;45.03;;;20.87;;
55647;SDS011;45266;48.756;9.246;2022-12-18T04:47:45;47.07;;;21.10;;
55647;SDS011;45266;48.756;9.246;2022-12-18T04:48:46;46.07;;;22.30;;
55647;SDS011;45266;48.756;9.246;2022-12-18T04:49:48;44.73;;;21.10;;
55647;SDS011;45266;48.756;9.246;2022-12-18T04:50:50;44.40;;;22.10;;
55647;SDS011;45266;48.756;9.246;2022-12-18T04:51:51;47.50;;;22.87;;
55647;SDS011;45266;48.756;9.246;2022-12-18T04:52:54;46.23;;;21.33;;
55647;SDS011;45266;48.756;9.246;2022-12-18T04:53:56;41.20;;;21.20;;
55647;SDS011;45266;48.756;9.246;2022-12-18T04:54:58;41.07;;;20.90;;
55647;SDS011;45266;48.756;9.246;2022-12-18T04:56:07;45.37;;;21.43;;
55647;SDS011;45266;48.756;9.246;2022-12-18T04:57:10;41.87;;;20.63;;
55647;SDS011;45266;48.756;9.246;2022-12-18T04:58:12;42.40;;;20.60;;
55647;SDS011;45266;48.756;9.246;2022-12-18T04:59:13;39.80;;;19.63;;
55647;SDS011;45266;48.756;9.246;2022-12-18T05:00:15;40.37;;;19.70;;
55647;SDS011;45266;48.756;9.246;2022-12-18T05:01:17;42.87;;;20.47;;
55647;SDS011;45266;48.756;9.246;2022-12-18T05:02:20;45.07;;;20.93;;
55647;SDS011;45266;48.756;9.246;2022-12-18T05:03:22;43.60;;;22.00;;
55647;SDS011;45266;48.756;9.246;2022-12-18T05:04:24;39.10;;;20.07;;
55647;SDS011;45266;48.756;9.246;2022-12-18T05:05:26;41.33;;;21.50;;
55647;SDS011;45266;48.756;9.246;2022-12-18T05:06:28;45.67;;;21.67;;
55647;SDS011;45266;48.756;9.246;2022-12-18T05:07:29;44.03;;;20.53;;
55647;SDS011;45266;48.756;9.246;2022-12-18T05:08:31;41.50;;;20.00;;
55647;SDS011;45266;48.756;9.246;2022-12-18T05:09:33;44.93;;;21.13;;
55647;SDS011;45266;48.756;9.246;2022-12-18T05:10:35;39.20;;;20.17;;
55647;SDS011;45266;48.756;9.246;2022-12-18T05:11:38;33.53;;;19.07;;
55647;SDS011;45266;48.756;9.246;2022-12-18T05:12:40;39.23;;;18.77;;
55647;SDS011;45266;48.756;9.246;2022-12-18T05:14:01;41.13;;;19.17;;
55647;SDS011;45266;48.756;9.246;2022-12-18T05:15:03;38.63;;;19.10;;
55647;SDS011;45266;48.756;9.246;2022-12-18T05:16:05;36.93;;;19.00;;
55647;SDS011;45266;48.756;9.246;2022-12-18T05:17:07;42.00;;;19.10;;
55647;SDS011;45266;48.756;9.246;2022-12-18T05:18:09;39.63;;;19.60;;
55647;SDS011;45266;48.756;9.246;2022-12-18T05:19:11;41.33;;;20.33;;
55647;SDS011;45266;48.756;9.246;2022-12-18T05:20:13;38.83;;;19.37;;
55647;SDS011;45266;48.756;9.246;2022-12-18T05:21:15;39.10;;;19.80;;
55647;SDS011;45266;48.756;9.246;2022-12-18T05:22:16;40.23;;;19.67;;
55647;SDS011;45266;48.756;9.246;2022-12-18T05:23:19;40.43;;;19.80;;
55647;SDS011;45266;48.756;9.246;2022-12-18T05:24:22;40.60;;;20.37;;
55647;SDS011;45266;48.756;9.246;2022-12-18T05:25:23;40.50;;;20.00;;
55647;SDS011;45266;48.756;9.246;2022-12-18T05:26:25;38.10;;;19.20;;
55647;SDS011;45266;48.756;9.246;2022-12-18T05:27:27;39.07;;;19.60;;
55647;SDS011;45266;48.756;9.246;2022-12-18T05:28:29;44.57;;;20.40;;
55647;SDS011;45266;48.756;9.246;2022-12-18T05:29:32;37.50;;;19.60;;
55647;SDS011;45266;48.756;9.246;2022-12-18T05:30:34;39.93;;;19.53;;
55647;SDS011;45266;48.756;9.246;2022-12-18T05:31:36;39.57;;;20.17;;
55647;SDS011;45266;48.756;9.246;2022-12-18T05:32:40;40.23;;;19.77;;
55647;SDS011;45266;48.756;9.246;2022-12-18T05:33:42;37.47;;;19.00;;
55647;SDS011;45266;48.756;9.246;2022-12-18T05:34:44;38.53;;;19.10;;
55647;SDS011;45266;48.756;9.246;2022-12-18T05:35:56;34.10;;;17.63;;
55647;SDS011;45266;48.756;9.246;2022-12-18T05:36:58;39.27;;;18.93;;
55647;SDS011;45266;48.756;9.246;2022-12-18T05:38:00;35.27;;;18.47;;
55647;SDS011;45266;48.756;9.246;2022-12-18T05:39:02;37.23;;;17.73;;
55647;SDS011;45266;48.756;9.246;2022-12-18T05:40:04;37.37;;;18.83;;
55647;SDS011;45266;48.756;9.246;2022-12-18T05:41:07;37.77;;;18.83;;
55647;SDS011;45266;48.756;9.246;2022-12-18T05:42:09;39.30;;;18.17;;
55647;SDS011;45266;48.756;9.246;2022-12-18T05:43:11;43.87;;;18.70;;
55647;SDS011;45266;48.756;9.246;2022-12-18T05:44:20;37.60;;;20.13;;
55647;SDS011;45266;48.756;9.246;2022-12-18T05:45:22;38.33;;;18.60;;
55647;SDS011;45266;48.756;9.246;2022-12-18T05:46:24;39.10;;;18.07;;
55647;SDS011;45266;48.756;9.246;2022-12-18T05:47:26;41.90;;;19.20;;
55647;SDS011;45266;48.756;9.246;2022-12-18T05:48:29;37.07;;;17.67;;
55647;SDS011;45266;48.756;9.246;2022-12-18T05:49:31;40.37;;;18.80;;
55647;SDS011;45266;48.756;9.246;2022-12-18T05:50:36;40.37;;;19.30;;
55647;SDS011;45266;48.756;9.246;2022-12-18T05:51:39;35.73;;;18.90;;
55647;SDS011;45266;48.756;9.246;2022-12-18T05:52:41;38.07;;;18.80;;
55647;SDS011;45266;48.756;9.246;2022-12-18T05:53:43;40.40;;;18.50;;
55647;SDS011;45266;48.756;9.246;2022-12-18T05:54:45;38.80;;;19.90;;
55647;SDS011;45266;48.756;9.246;2022-12-18T05:55:47;38.17;;;19.30;;
55647;SDS011;45266;48.756;9.246;2022-12-18T05:56:49;37.20;;;18.67;;
55647;SDS011;45266;48.756;9.246;2022-12-18T05:57:50;40.60;;;19.50;;
55647;SDS011;45266;48.756;9.246;2022-12-18T05:58:53;41.80;;;19.80;;
55647;SDS011;45266;48.756;9.246;2022-12-18T05:59:55;40.73;;;18.77;;
55647;SDS011;45266;48.756;9.246;2022-12-18T06:00:57;40.43;;;18.90;;
55647;SDS011;45266;48.756;9.246;2022-12-18T06:01:59;38.87;;;19.30;;
55647;SDS011;45266;48.756;9.246;2022-12-18T06:03:01;39.10;;;19.50;;
55647;SDS011;45266;48.756;9.246;2022-12-18T06:04:03;39.03;;;18.37;;
55647;SDS011;45266;48.756;9.246;2022-12-18T06:05:05;36.97;;;18.63;;
55647;SDS011;45266;48.756;9.246;2022-12-18T06:06:17;37.40;;;18.90;;
55647;SDS011;45266;48.756;9.246;2022-12-18T06:07:21;39.27;;;18.60;;
55647;SDS011;45266;48.756;9.246;2022-12-18T06:08:23;37.20;;;19.43;;
55647;SDS011;45266;48.756;9.246;2022-12-18T06:09:24;42.00;;;19.73;;
55647;SDS011;45266;48.756;9.246;2022-12-18T06:10:26;39.57;;;19.10;;
55647;SDS011;45266;48.756;9.246;2022-12-18T06:11:28;37.60;;;18.17;;
55647;SDS011;45266;48.756;9.246;2022-12-18T06:12:30;36.17;;;18.73;;
55647;SDS011;45266;48.756;9.246;2022-12-18T06:13:32;39.40;;;19.30;;
55647;SDS011;45266;48.756;9.246;2022-12-18T06:14:33;39.30;;;18.23;;
55647;SDS011;45266;48.756;9.246;2022-12-18T06:15:36;41.30;;;18.60;;
55647;SDS011;45266;48.756;9.246;2022-12-18T06:16:38;41.53;;;19.87;;
55647;SDS011;45266;48.756;9.246;2022-12-18T06:17:40;36.70;;;18.07;;
55647;SDS011;45266;48.756;9.246;2022-12-18T06:18:41;38.83;;;17.57;;
55647;SDS011;45266;48.756;9.246;2022-12-18T06:19:43;34.60;;;18.10;;
55647;SDS011;45266;48.756;9.246;2022-12-18T06:20:45;38.23;;;18.00;;
55647;SDS011;45266;48.756;9.246;2022-12-18T06:21:54;37.97;;;18.43;;
55647;SDS011;45266;48.756;9.246;2022-12-18T06:22:58;39.17;;;19.13;;
55647;SDS011;45266;48.756;9.246;2022-12-18T06:24:00;37.20;;;19.13;;
55647;SDS011;45266;48.756;9.246;2022-12-18T06:25:02;40.83;;;19.83;;
55647;SDS011;45266;48.756;9.246;2022-12-18T06:26:05;38.40;;;19.37;;
55647;SDS011;45266;48.756;9.246;2022-12-18T06:27:09;39.23;;;19.40;;
55647;SDS011;45266;48.756;9.246;2022-12-18T06:28:11;41.30;;;19.63;;
55647;SDS011;45266;48.756;9.246;2022-12-18T06:29:12;41.67;;;19.70;;
55647;SDS011;45266;48.756;9.246;2022-12-18T06:30:14;40.03;;;18.83;;
55647;SDS011;45266;48.756;9.246;2022-12-18T06:31:16;38.60;;;18.70;;
55647;SDS011;45266;48.756;9.246;2022-12-18T06:32:18;39.60;;;18.70;;
55647;SDS011;45266;48.756;9.246;2022-12-18T06:33:20;36.80;;;18.73;;